sensor_id;sensor_type;location;lat;lon;timestamp;temperature;humidity
17687;DHT22;8962;52.538;13.266;2023-03-12T00:00:49;1.10;99.90
17687;DHT22;8962;52.538;13.266;2023-03-12T00:03:18;1.00;99.90
17687;DHT22;8962;52.538;13.266;2023-03-12T00:05:45;1.10;99.90
17687;DHT22;8962;52.538;13.266;2023-03-12T00:08:12;1.10;99.90
17687;DHT22;8962;52.538;13.266;2023-03-12T00:10:39;1.10;99.90
17687;DHT22;8962;52.538;13.266;2023-03-12T00:13:07;1.10;99.90
17687;DHT22;8962;52.538;13.266;2023-03-12T00:15:35;1.10;99.90
17687;DHT22;8962;52.538;13.266;2023-03-12T00:18:04;1.20;99.90
17687;DHT22;8962;52.538;13.266;2023-03-12T00:20:34;1.10;99.90
17687;DHT22;8962;52.538;13.266;2023-03-12T00:23:01;1.10;99.90
17687;DHT22;8962;52.538;13.266;2023-03-12T00:25:28;1.20;99.90
17687;DHT22;8962;52.538;13.266;2023-03-12T00:27:56;1.20;99.90
17687;DHT22;8962;52.538;13.266;2023-03-12T00:30:23;1.20;99.90
17687;DHT22;8962;52.538;13.266;2023-03-12T00:32:52;1.20;99.90
17687;DHT22;8962;52.538;13.266;2023-03-12T00:35:19;1.20;99.90
17687;DHT22;8962;52.538;13.266;2023-03-12T00:37:48;1.20;99.90
17687;DHT22;8962;52.538;13.266;2023-03-12T00:40:17;1.20;99.90
17687;DHT22;8962;52.538;13.266;2023-03-12T00:42:44;1.20;99.90
17687;DHT22;8962;52.538;13.266;2023-03-12T00:45:11;1.30;99.90
17687;DHT22;8962;52.538;13.266;2023-03-12T00:47:38;1.30;99.90
17687;DHT22;8962;52.538;13.266;2023-03-12T00:50:06;1.40;99.90
17687;DHT22;8962;52.538;13.266;2023-03-12T00:52:37;1.50;99.90
17687;DHT22;8962;52.538;13.266;2023-03-12T00:55:06;1.60;99.90
17687;DHT22;8962;52.538;13.266;2023-03-12T00:57:34;1.70;99.90
17687;DHT22;8962;52.538;13.266;2023-03-12T01:00:01;1.70;99.90
17687;DHT22;8962;52.538;13.266;2023-03-12T01:02:33;1.80;99.90
17687;DHT22;8962;52.538;13.266;2023-03-12T01:05:00;1.80;99.90
17687;DHT22;8962;52.538;13.266;2023-03-12T01:07:27;1.90;99.90
17687;DHT22;8962;52.538;13.266;2023-03-12T01:09:54;1.90;99.90
17687;DHT22;8962;52.538;13.266;2023-03-12T01:12:23;2.00;99.90
17687;DHT22;8962;52.538;13.266;2023-03-12T01:14:50;2.00;99.90
17687;DHT22;8962;52.538;13.266;2023-03-12T01:17:17;2.00;99.90
17687;DHT22;8962;52.538;13.266;2023-03-12T01:19:44;2.00;99.90
17687;DHT22;8962;52.538;13.266;2023-03-12T01:22:11;2.00;99.90
17687;DHT22;8962;52.538;13.266;2023-03-12T01:24:39;2.00;99.90
17687;DHT22;8962;52.538;13.266;2023-03-12T01:27:06;2.00;99.90
17687;DHT22;8962;52.538;13.266;2023-03-12T01:29:34;1.80;99.90
17687;DHT22;8962;52.538;13.266;2023-03-12T01:32:02;1.70;99.90
17687;DHT22;8962;52.538;13.266;2023-03-12T01:34:29;1.70;99.90
17687;DHT22;8962;52.538;13.266;2023-03-12T01:36:58;1.60;99.90
17687;DHT22;8962;52.538;13.266;2023-03-12T01:39:25;1.60;99.90
17687;DHT22;8962;52.538;13.266;2023-03-12T01:41:53;1.60;99.90
17687;DHT22;8962;52.538;13.266;2023-03-12T01:44:20;1.70;99.90
17687;DHT22;8962;52.538;13.266;2023-03-12T01:46:48;1.70;99.90
17687;DHT22;8962;52.538;13.266;2023-03-12T01:49:24;1.70;99.90
17687;DHT22;8962;52.538;13.266;2023-03-12T01:51:56;1.70;99.90
17687;DHT22;8962;52.538;13.266;2023-03-12T01:54:30;1.80;99.90
17687;DHT22;8962;52.538;13.266;2023-03-12T01:56:59;1.80;99.90
17687;DHT22;8962;52.538;13.266;2023-03-12T01:59:30;1.70;99.90
17687;DHT22;8962;52.538;13.266;2023-03-12T02:02:00;1.80;99.90
17687;DHT22;8962;52.538;13.266;2023-03-12T02:04:28;1.80;99.90
17687;DHT22;8962;52.538;13.266;2023-03-12T02:07:01;1.80;99.90
17687;DHT22;8962;52.538;13.266;2023-03-12T02:09:32;1.80;99.90
17687;DHT22;8962;52.538;13.266;2023-03-12T02:12:01;1.80;99.90
17687;DHT22;8962;52.538;13.266;2023-03-12T02:14:29;1.70;99.90
17687;DHT22;8962;52.538;13.266;2023-03-12T02:16:57;1.70;99.90
17687;DHT22;8962;52.538;13.266;2023-03-12T02:19:35;1.60;99.90
17687;DHT22;8962;52.538;13.266;2023-03-12T02:22:05;1.60;99.90
17687;DHT22;8962;52.538;13.266;2023-03-12T02:24:37;1.60;99.90
17687;DHT22;8962;52.538;13.266;2023-03-12T02:27:11;1.50;99.90
17687;DHT22;8962;52.538;13.266;2023-03-12T02:29:44;1.50;99.90
17687;DHT22;8962;52.538;13.266;2023-03-12T02:32:19;1.50;99.90
17687;DHT22;8962;52.538;13.266;2023-03-12T02:34:47;1.50;99.90
17687;DHT22;8962;52.538;13.266;2023-03-12T02:37:17;1.40;99.90
17687;DHT22;8962;52.538;13.266;2023-03-12T02:39:50;1.30;99.90
17687;DHT22;8962;52.538;13.266;2023-03-12T02:42:21;1.20;99.90
17687;DHT22;8962;52.538;13.266;2023-03-12T02:44:49;1.20;99.90
17687;DHT22;8962;52.538;13.266;2023-03-12T02:47:17;1.10;99.90
17687;DHT22;8962;52.538;13.266;2023-03-12T02:49:45;1.10;99.90
17687;DHT22;8962;52.538;13.266;2023-03-12T02:52:12;1.00;99.90
17687;DHT22;8962;52.538;13.266;2023-03-12T02:54:40;1.00;99.90
17687;DHT22;8962;52.538;13.266;2023-03-12T02:57:08;1.00;99.90
17687;DHT22;8962;52.538;13.266;2023-03-12T02:59:37;0.90;99.90
17687;DHT22;8962;52.538;13.266;2023-03-12T03:02:07;0.90;99.90
17687;DHT22;8962;52.538;13.266;2023-03-12T03:04:37;0.90;99.90
17687;DHT22;8962;52.538;13.266;2023-03-12T03:07:07;0.90;99.90
17687;DHT22;8962;52.538;13.266;2023-03-12T03:09:34;0.90;99.90
17687;DHT22;8962;52.538;13.266;2023-03-12T03:12:01;0.90;99.90
17687;DHT22;8962;52.538;13.266;2023-03-12T03:14:31;0.90;99.90
17687;DHT22;8962;52.538;13.266;2023-03-12T03:17:00;0.90;99.90
17687;DHT22;8962;52.538;13.266;2023-03-12T03:19:27;0.90;99.90
17687;DHT22;8962;52.538;13.266;2023-03-12T03:21:56;0.80;99.90
17687;DHT22;8962;52.538;13.266;2023-03-12T03:24:23;0.80;99.90
17687;DHT22;8962;52.538;13.266;2023-03-12T03:26:50;0.80;99.90
17687;DHT22;8962;52.538;13.266;2023-03-12T03:29:20;0.80;99.90
17687;DHT22;8962;52.538;13.266;2023-03-12T03:31:47;0.80;99.90
17687;DHT22;8962;52.538;13.266;2023-03-12T03:34:16;0.70;99.90
17687;DHT22;8962;52.538;13.266;2023-03-12T03:36:45;0.80;99.90
17687;DHT22;8962;52.538;13.266;2023-03-12T03:39:14;0.70;99.90
17687;DHT22;8962;52.538;13.266;2023-03-12T03:41:42;0.70;99.90
17687;DHT22;8962;52.538;13.266;2023-03-12T03:44:11;0.60;99.90
17687;DHT22;8962;52.538;13.266;2023-03-12T03:46:39;0.60;99.90
17687;DHT22;8962;52.538;13.266;2023-03-12T03:49:09;0.60;68.60
17687;DHT22;8962;52.538;13.266;2023-03-12T03:51:43;0.60;67.30
17687;DHT22;8962;52.538;13.266;2023-03-12T03:54:13;0.50;71.50
17687;DHT22;8962;52.538;13.266;2023-03-12T03:56:42;0.50;96.60
17687;DHT22;8962;52.538;13.266;2023-03-12T03:59:10;0.40;69.80
17687;DHT22;8962;52.538;13.266;2023-03-12T04:01:39;0.40;71.30
17687;DHT22;8962;52.538;13.266;2023-03-12T04:04:06;0.50;74.90
17687;DHT22;8962;52.538;13.266;2023-03-12T04:06:34;0.40;78.60
17687;DHT22;8962;52.538;13.266;2023-03-12T04:09:05;0.50;80.60
17687;DHT22;8962;52.538;13.266;2023-03-12T04:11:34;0.50;81.80
17687;DHT22;8962;52.538;13.266;2023-03-12T04:14:04;0.60;82.60
17687;DHT22;8962;52.538;13.266;2023-03-12T04:16:33;0.60;82.70
17687;DHT22;8962;52.538;13.266;2023-03-12T04:19:02;0.60;77.80
17687;DHT22;8962;52.538;13.266;2023-03-12T04:21:29;0.60;78.70
17687;DHT22;8962;52.538;13.266;2023-03-12T04:23:57;0.60;83.20
17687;DHT22;8962;52.538;13.266;2023-03-12T04:26:33;0.60;89.00
17687;DHT22;8962;52.538;13.266;2023-03-12T04:29:02;0.60;91.30
17687;DHT22;8962;52.538;13.266;2023-03-12T04:31:29;0.60;92.50
17687;DHT22;8962;52.538;13.266;2023-03-12T04:33:58;0.60;93.60
17687;DHT22;8962;52.538;13.266;2023-03-12T04:36:26;0.60;93.40
17687;DHT22;8962;52.538;13.266;2023-03-12T04:38:55;0.60;94.20
17687;DHT22;8962;52.538;13.266;2023-03-12T04:41:26;0.60;95.20
17687;DHT22;8962;52.538;13.266;2023-03-12T04:44:04;0.50;96.20
17687;DHT22;8962;52.538;13.266;2023-03-12T04:46:33;0.50;97.20
17687;DHT22;8962;52.538;13.266;2023-03-12T04:49:00;0.50;98.00
17687;DHT22;8962;52.538;13.266;2023-03-12T04:51:30;0.40;98.30
17687;DHT22;8962;52.538;13.266;2023-03-12T04:54:00;0.40;98.10
17687;DHT22;8962;52.538;13.266;2023-03-12T04:56:27;0.40;98.10
17687;DHT22;8962;52.538;13.266;2023-03-12T04:58:54;0.30;97.90
17687;DHT22;8962;52.538;13.266;2023-03-12T05:01:29;0.30;98.20
17687;DHT22;8962;52.538;13.266;2023-03-12T05:04:07;0.30;98.20
17687;DHT22;8962;52.538;13.266;2023-03-12T05:06:35;0.20;98.70
17687;DHT22;8962;52.538;13.266;2023-03-12T05:09:03;0.20;98.90
17687;DHT22;8962;52.538;13.266;2023-03-12T05:11:31;0.20;98.40
17687;DHT22;8962;52.538;13.266;2023-03-12T05:13:59;0.20;99.90
17687;DHT22;8962;52.538;13.266;2023-03-12T05:16:28;0.20;99.90
17687;DHT22;8962;52.538;13.266;2023-03-12T05:18:56;0.20;98.10
17687;DHT22;8962;52.538;13.266;2023-03-12T05:21:24;0.20;99.90
17687;DHT22;8962;52.538;13.266;2023-03-12T05:23:53;0.20;95.50
17687;DHT22;8962;52.538;13.266;2023-03-12T05:26:24;0.30;94.10
17687;DHT22;8962;52.538;13.266;2023-03-12T05:28:56;0.30;93.30
17687;DHT22;8962;52.538;13.266;2023-03-12T05:31:24;0.30;92.80
17687;DHT22;8962;52.538;13.266;2023-03-12T05:33:53;0.20;93.50
17687;DHT22;8962;52.538;13.266;2023-03-12T05:36:21;0.20;94.40
17687;DHT22;8962;52.538;13.266;2023-03-12T05:38:48;0.20;95.20
17687;DHT22;8962;52.538;13.266;2023-03-12T05:41:20;0.20;95.70
17687;DHT22;8962;52.538;13.266;2023-03-12T05:43:48;0.20;96.40
17687;DHT22;8962;52.538;13.266;2023-03-12T05:46:16;0.30;95.90
17687;DHT22;8962;52.538;13.266;2023-03-12T05:48:44;0.10;99.90
17687;DHT22;8962;52.538;13.266;2023-03-12T05:51:16;0.10;99.90
17687;DHT22;8962;52.538;13.266;2023-03-12T05:53:43;0.10;99.90
17687;DHT22;8962;52.538;13.266;2023-03-12T05:56:12;0.00;99.90
17687;DHT22;8962;52.538;13.266;2023-03-12T05:58:41;0.00;99.90
17687;DHT22;8962;52.538;13.266;2023-03-12T06:01:13;0.00;99.90
17687;DHT22;8962;52.538;13.266;2023-03-12T06:03:41;0.00;99.90
17687;DHT22;8962;52.538;13.266;2023-03-12T06:06:09;-0.10;99.90
17687;DHT22;8962;52.538;13.266;2023-03-12T06:08:38;-0.10;99.90
17687;DHT22;8962;52.538;13.266;2023-03-12T06:11:06;-0.10;99.90
17687;DHT22;8962;52.538;13.266;2023-03-12T06:13:33;0.00;99.90
17687;DHT22;8962;52.538;13.266;2023-03-12T06:16:03;0.00;99.90
17687;DHT22;8962;52.538;13.266;2023-03-12T06:18:31;0.00;99.90
17687;DHT22;8962;52.538;13.266;2023-03-12T06:21:10;0.00;99.90
17687;DHT22;8962;52.538;13.266;2023-03-12T06:23:40;0.00;99.90
17687;DHT22;8962;52.538;13.266;2023-03-12T06:26:12;0.10;99.90
17687;DHT22;8962;52.538;13.266;2023-03-12T06:28:39;0.10;99.90
17687;DHT22;8962;52.538;13.266;2023-03-12T06:31:07;0.10;99.90
17687;DHT22;8962;52.538;13.266;2023-03-12T06:33:35;0.20;99.90
17687;DHT22;8962;52.538;13.266;2023-03-12T06:36:05;0.20;99.90
17687;DHT22;8962;52.538;13.266;2023-03-12T06:38:34;0.30;99.90
17687;DHT22;8962;52.538;13.266;2023-03-12T06:41:05;0.30;99.90
17687;DHT22;8962;52.538;13.266;2023-03-12T06:43:34;0.30;99.90
17687;DHT22;8962;52.538;13.266;2023-03-12T06:46:02;0.40;99.90
17687;DHT22;8962;52.538;13.266;2023-03-12T06:48:32;0.50;99.90
17687;DHT22;8962;52.538;13.266;2023-03-12T06:51:01;0.50;99.90
17687;DHT22;8962;52.538;13.266;2023-03-12T06:53:29;0.60;99.90
17687;DHT22;8962;52.538;13.266;2023-03-12T06:55:57;0.60;99.90
17687;DHT22;8962;52.538;13.266;2023-03-12T06:58:27;0.70;99.90
17687;DHT22;8962;52.538;13.266;2023-03-12T07:00:54;0.80;99.90
17687;DHT22;8962;52.538;13.266;2023-03-12T07:03:22;0.90;99.90
17687;DHT22;8962;52.538;13.266;2023-03-12T07:05:50;0.90;99.90
17687;DHT22;8962;52.538;13.266;2023-03-12T07:08:18;1.00;99.90
17687;DHT22;8962;52.538;13.266;2023-03-12T07:10:46;1.20;99.90
17687;DHT22;8962;52.538;13.266;2023-03-12T07:13:14;1.20;99.90
17687;DHT22;8962;52.538;13.266;2023-03-12T07:15:42;1.40;99.90
17687;DHT22;8962;52.538;13.266;2023-03-12T07:18:11;1.40;99.90
17687;DHT22;8962;52.538;13.266;2023-03-12T07:20:39;1.40;99.90
17687;DHT22;8962;52.538;13.266;2023-03-12T07:23:15;1.50;99.90
17687;DHT22;8962;52.538;13.266;2023-03-12T07:25:42;1.50;99.90
17687;DHT22;8962;52.538;13.266;2023-03-12T07:28:12;1.50;99.90
17687;DHT22;8962;52.538;13.266;2023-03-12T07:30:42;1.60;99.90
17687;DHT22;8962;52.538;13.266;2023-03-12T07:33:17;1.60;99.90
17687;DHT22;8962;52.538;13.266;2023-03-12T07:35:45;1.60;99.90
17687;DHT22;8962;52.538;13.266;2023-03-12T07:38:14;1.60;99.90
17687;DHT22;8962;52.538;13.266;2023-03-12T07:40:41;1.60;99.90
17687;DHT22;8962;52.538;13.266;2023-03-12T07:43:09;1.60;99.90
17687;DHT22;8962;52.538;13.266;2023-03-12T07:45:39;1.60;99.90
17687;DHT22;8962;52.538;13.266;2023-03-12T07:48:08;1.70;99.90
17687;DHT22;8962;52.538;13.266;2023-03-12T07:50:36;1.80;99.90
17687;DHT22;8962;52.538;13.266;2023-03-12T07:53:04;1.80;99.90
17687;DHT22;8962;52.538;13.266;2023-03-12T07:55:32;1.90;99.90
17687;DHT22;8962;52.538;13.266;2023-03-12T07:58:00;2.10;99.90
17687;DHT22;8962;52.538;13.266;2023-03-12T08:00:28;2.10;99.90
17687;DHT22;8962;52.538;13.266;2023-03-12T08:02:56;2.30;99.90
17687;DHT22;8962;52.538;13.266;2023-03-12T08:05:28;2.40;99.90
17687;DHT22;8962;52.538;13.266;2023-03-12T08:07:55;2.60;99.90
17687;DHT22;8962;52.538;13.266;2023-03-12T08:10:22;2.70;99.90
17687;DHT22;8962;52.538;13.266;2023-03-12T08:12:49;2.80;99.90
17687;DHT22;8962;52.538;13.266;2023-03-12T08:15:17;2.80;99.90
17687;DHT22;8962;52.538;13.266;2023-03-12T08:17:44;2.90;99.90
17687;DHT22;8962;52.538;13.266;2023-03-12T08:20:12;3.00;99.90
17687;DHT22;8962;52.538;13.266;2023-03-12T08:22:41;3.20;99.90
17687;DHT22;8962;52.538;13.266;2023-03-12T08:25:09;3.30;99.90
17687;DHT22;8962;52.538;13.266;2023-03-12T08:27:36;3.40;99.90
17687;DHT22;8962;52.538;13.266;2023-03-12T08:30:04;3.50;99.90
17687;DHT22;8962;52.538;13.266;2023-03-12T08:32:32;3.70;99.90
17687;DHT22;8962;52.538;13.266;2023-03-12T08:34:59;3.80;99.90
17687;DHT22;8962;52.538;13.266;2023-03-12T08:37:27;3.90;99.90
17687;DHT22;8962;52.538;13.266;2023-03-12T08:39:56;4.10;99.90
17687;DHT22;8962;52.538;13.266;2023-03-12T08:42:23;4.40;99.90
17687;DHT22;8962;52.538;13.266;2023-03-12T08:44:50;4.50;99.90
17687;DHT22;8962;52.538;13.266;2023-03-12T08:47:18;4.70;99.90
17687;DHT22;8962;52.538;13.266;2023-03-12T08:49:45;4.70;99.90
17687;DHT22;8962;52.538;13.266;2023-03-12T08:52:13;4.80;99.90
17687;DHT22;8962;52.538;13.266;2023-03-12T08:54:41;5.00;99.90
17687;DHT22;8962;52.538;13.266;2023-03-12T08:57:10;4.90;99.90
17687;DHT22;8962;52.538;13.266;2023-03-12T08:59:37;4.80;99.90
17687;DHT22;8962;52.538;13.266;2023-03-12T09:02:05;4.90;99.90
17687;DHT22;8962;52.538;13.266;2023-03-12T09:04:33;4.90;99.90
17687;DHT22;8962;52.538;13.266;2023-03-12T09:07:01;4.80;99.90
17687;DHT22;8962;52.538;13.266;2023-03-12T09:09:28;4.70;99.90
17687;DHT22;8962;52.538;13.266;2023-03-12T09:11:56;4.80;99.90
17687;DHT22;8962;52.538;13.266;2023-03-12T09:14:24;4.90;99.90
17687;DHT22;8962;52.538;13.266;2023-03-12T09:16:52;4.90;99.90
17687;DHT22;8962;52.538;13.266;2023-03-12T09:19:19;5.00;99.90
17687;DHT22;8962;52.538;13.266;2023-03-12T09:21:46;5.10;99.90
17687;DHT22;8962;52.538;13.266;2023-03-12T09:24:13;5.30;99.90
17687;DHT22;8962;52.538;13.266;2023-03-12T09:26:41;5.30;99.90
17687;DHT22;8962;52.538;13.266;2023-03-12T09:29:08;5.50;99.90
17687;DHT22;8962;52.538;13.266;2023-03-12T09:31:36;5.80;99.90
17687;DHT22;8962;52.538;13.266;2023-03-12T09:34:04;6.00;99.90
17687;DHT22;8962;52.538;13.266;2023-03-12T09:36:31;6.00;99.90
17687;DHT22;8962;52.538;13.266;2023-03-12T09:38:59;6.00;99.90
17687;DHT22;8962;52.538;13.266;2023-03-12T09:41:29;5.90;99.90
17687;DHT22;8962;52.538;13.266;2023-03-12T09:44:01;5.90;99.90
17687;DHT22;8962;52.538;13.266;2023-03-12T09:46:36;6.10;99.90
17687;DHT22;8962;52.538;13.266;2023-03-12T09:49:09;6.10;99.90
17687;DHT22;8962;52.538;13.266;2023-03-12T09:51:42;6.20;99.90
17687;DHT22;8962;52.538;13.266;2023-03-12T09:54:20;6.10;99.90
17687;DHT22;8962;52.538;13.266;2023-03-12T09:56:50;6.30;99.90
17687;DHT22;8962;52.538;13.266;2023-03-12T09:59:18;6.60;99.90
17687;DHT22;8962;52.538;13.266;2023-03-12T10:01:51;6.90;99.90
17687;DHT22;8962;52.538;13.266;2023-03-12T10:04:37;7.10;99.90
17687;DHT22;8962;52.538;13.266;2023-03-12T10:07:07;7.10;99.90
17687;DHT22;8962;52.538;13.266;2023-03-12T10:10:00;7.20;99.90
17687;DHT22;8962;52.538;13.266;2023-03-12T10:12:37;7.30;99.90
17687;DHT22;8962;52.538;13.266;2023-03-12T10:15:16;7.40;99.90
17687;DHT22;8962;52.538;13.266;2023-03-12T10:17:57;7.20;99.90
17687;DHT22;8962;52.538;13.266;2023-03-12T10:20:50;7.50;99.90
17687;DHT22;8962;52.538;13.266;2023-03-12T10:23:24;7.60;99.90
17687;DHT22;8962;52.538;13.266;2023-03-12T10:25:58;7.30;99.90
17687;DHT22;8962;52.538;13.266;2023-03-12T10:28:33;7.50;99.90
17687;DHT22;8962;52.538;13.266;2023-03-12T10:31:05;7.80;99.90
17687;DHT22;8962;52.538;13.266;2023-03-12T10:33:42;7.70;99.90
17687;DHT22;8962;52.538;13.266;2023-03-12T10:36:15;7.60;99.90
17687;DHT22;8962;52.538;13.266;2023-03-12T10:38:43;7.80;99.90
17687;DHT22;8962;52.538;13.266;2023-03-12T10:41:15;7.70;99.90
17687;DHT22;8962;52.538;13.266;2023-03-12T10:43:42;7.50;99.90
17687;DHT22;8962;52.538;13.266;2023-03-12T10:46:44;7.50;99.90
17687;DHT22;8962;52.538;13.266;2023-03-12T10:49:28;7.70;99.90
17687;DHT22;8962;52.538;13.266;2023-03-12T10:51:59;7.80;99.90
17687;DHT22;8962;52.538;13.266;2023-03-12T10:54:32;7.70;99.90
17687;DHT22;8962;52.538;13.266;2023-03-12T10:57:00;7.80;99.90
17687;DHT22;8962;52.538;13.266;2023-03-12T10:59:29;7.90;99.90
17687;DHT22;8962;52.538;13.266;2023-03-12T11:01:57;8.20;99.90
17687;DHT22;8962;52.538;13.266;2023-03-12T11:04:27;8.50;99.90
17687;DHT22;8962;52.538;13.266;2023-03-12T11:07:17;8.60;99.90
17687;DHT22;8962;52.538;13.266;2023-03-12T11:09:52;8.70;99.90
17687;DHT22;8962;52.538;13.266;2023-03-12T11:12:30;8.60;99.90
17687;DHT22;8962;52.538;13.266;2023-03-12T11:15:17;8.20;99.90
17687;DHT22;8962;52.538;13.266;2023-03-12T11:17:45;8.30;99.90
17687;DHT22;8962;52.538;13.266;2023-03-12T11:20:27;8.30;99.90
17687;DHT22;8962;52.538;13.266;2023-03-12T11:22:55;8.20;99.90
17687;DHT22;8962;52.538;13.266;2023-03-12T11:25:24;8.10;99.90
17687;DHT22;8962;52.538;13.266;2023-03-12T11:27:53;8.70;99.90
17687;DHT22;8962;52.538;13.266;2023-03-12T11:30:25;9.30;99.90
17687;DHT22;8962;52.538;13.266;2023-03-12T11:32:54;9.60;99.90
17687;DHT22;8962;52.538;13.266;2023-03-12T11:35:32;9.60;99.90
17687;DHT22;8962;52.538;13.266;2023-03-12T11:38:10;9.30;99.90
17687;DHT22;8962;52.538;13.266;2023-03-12T11:40:57;9.30;99.90
17687;DHT22;8962;52.538;13.266;2023-03-12T11:43:48;9.80;99.90
17687;DHT22;8962;52.538;13.266;2023-03-12T11:46:26;9.50;99.90
17687;DHT22;8962;52.538;13.266;2023-03-12T11:49:05;9.10;99.90
17687;DHT22;8962;52.538;13.266;2023-03-12T11:51:45;9.00;99.90
17687;DHT22;8962;52.538;13.266;2023-03-12T11:54:28;8.70;99.90
17687;DHT22;8962;52.538;13.266;2023-03-12T11:57:04;8.50;99.90
17687;DHT22;8962;52.538;13.266;2023-03-12T11:59:51;8.50;99.90
17687;DHT22;8962;52.538;13.266;2023-03-12T12:02:35;8.60;99.90
17687;DHT22;8962;52.538;13.266;2023-03-12T12:05:28;8.80;99.90
17687;DHT22;8962;52.538;13.266;2023-03-12T12:08:20;8.90;99.90
17687;DHT22;8962;52.538;13.266;2023-03-12T12:10:58;8.60;99.90
17687;DHT22;8962;52.538;13.266;2023-03-12T12:13:35;8.60;99.90
17687;DHT22;8962;52.538;13.266;2023-03-12T12:16:21;8.60;99.90
17687;DHT22;8962;52.538;13.266;2023-03-12T12:18:58;8.60;99.90
17687;DHT22;8962;52.538;13.266;2023-03-12T12:21:43;8.50;99.90
17687;DHT22;8962;52.538;13.266;2023-03-12T12:24:23;8.80;99.90
17687;DHT22;8962;52.538;13.266;2023-03-12T12:27:02;8.70;99.90
17687;DHT22;8962;52.538;13.266;2023-03-12T12:29:54;8.80;99.90
17687;DHT22;8962;52.538;13.266;2023-03-12T12:32:34;8.70;99.90
17687;DHT22;8962;52.538;13.266;2023-03-12T12:35:16;8.90;99.90
17687;DHT22;8962;52.538;13.266;2023-03-12T12:37:52;9.00;99.90
17687;DHT22;8962;52.538;13.266;2023-03-12T12:40:26;9.10;99.90
17687;DHT22;8962;52.538;13.266;2023-03-12T12:43:04;9.10;99.90
17687;DHT22;8962;52.538;13.266;2023-03-12T12:45:32;9.00;98.40
17687;DHT22;8962;52.538;13.266;2023-03-12T12:48:02;9.10;98.00
17687;DHT22;8962;52.538;13.266;2023-03-12T12:50:34;9.20;99.40
17687;DHT22;8962;52.538;13.266;2023-03-12T12:53:12;9.30;99.90
17687;DHT22;8962;52.538;13.266;2023-03-12T12:55:48;9.30;99.90
17687;DHT22;8962;52.538;13.266;2023-03-12T12:58:22;9.20;99.90
17687;DHT22;8962;52.538;13.266;2023-03-12T13:00:55;9.20;99.90
17687;DHT22;8962;52.538;13.266;2023-03-12T13:03:25;8.80;99.90
17687;DHT22;8962;52.538;13.266;2023-03-12T13:05:56;8.40;99.90
17687;DHT22;8962;52.538;13.266;2023-03-12T13:08:56;8.30;98.70
17687;DHT22;8962;52.538;13.266;2023-03-12T13:11:27;8.30;98.40
17687;DHT22;8962;52.538;13.266;2023-03-12T13:14:14;8.20;97.70
17687;DHT22;8962;52.538;13.266;2023-03-12T13:16:42;7.90;97.50
17687;DHT22;8962;52.538;13.266;2023-03-12T13:19:23;7.80;97.50
17687;DHT22;8962;52.538;13.266;2023-03-12T13:22:03;7.80;97.50
17687;DHT22;8962;52.538;13.266;2023-03-12T13:24:34;7.70;97.90
17687;DHT22;8962;52.538;13.266;2023-03-12T13:27:15;7.70;98.30
17687;DHT22;8962;52.538;13.266;2023-03-12T13:29:43;7.70;99.00
17687;DHT22;8962;52.538;13.266;2023-03-12T13:32:36;7.70;99.70
17687;DHT22;8962;52.538;13.266;2023-03-12T13:35:26;7.70;99.90
17687;DHT22;8962;52.538;13.266;2023-03-12T13:38:03;7.70;99.90
17687;DHT22;8962;52.538;13.266;2023-03-12T13:40:36;7.60;99.90
17687;DHT22;8962;52.538;13.266;2023-03-12T13:43:10;7.50;99.80
17687;DHT22;8962;52.538;13.266;2023-03-12T13:45:55;7.40;99.30
17687;DHT22;8962;52.538;13.266;2023-03-12T13:48:26;7.30;99.90
17687;DHT22;8962;52.538;13.266;2023-03-12T13:50:56;7.50;99.90
17687;DHT22;8962;52.538;13.266;2023-03-12T13:53:26;7.60;99.90
17687;DHT22;8962;52.538;13.266;2023-03-12T13:56:06;7.50;99.90
17687;DHT22;8962;52.538;13.266;2023-03-12T13:58:40;7.40;99.90
17687;DHT22;8962;52.538;13.266;2023-03-12T14:01:15;7.50;99.90
17687;DHT22;8962;52.538;13.266;2023-03-12T14:03:45;7.40;99.80
17687;DHT22;8962;52.538;13.266;2023-03-12T14:06:17;7.50;99.50
17687;DHT22;8962;52.538;13.266;2023-03-12T14:09:01;7.30;99.50
17687;DHT22;8962;52.538;13.266;2023-03-12T14:11:40;7.40;99.50
17687;DHT22;8962;52.538;13.266;2023-03-12T14:17:19;7.00;99.90
17687;DHT22;8962;52.538;13.266;2023-03-12T14:19:50;6.90;99.90
17687;DHT22;8962;52.538;13.266;2023-03-12T14:22:18;6.90;99.90
17687;DHT22;8962;52.538;13.266;2023-03-12T14:24:51;6.80;99.90
17687;DHT22;8962;52.538;13.266;2023-03-12T14:27:24;6.70;99.90
17687;DHT22;8962;52.538;13.266;2023-03-12T14:29:56;6.80;99.90
17687;DHT22;8962;52.538;13.266;2023-03-12T14:32:26;6.80;99.90
17687;DHT22;8962;52.538;13.266;2023-03-12T14:35:01;6.80;99.90
17687;DHT22;8962;52.538;13.266;2023-03-12T14:37:37;6.70;99.90
17687;DHT22;8962;52.538;13.266;2023-03-12T14:40:11;6.70;99.90
17687;DHT22;8962;52.538;13.266;2023-03-12T14:42:44;6.50;99.90
17687;DHT22;8962;52.538;13.266;2023-03-12T14:45:16;6.40;99.90
17687;DHT22;8962;52.538;13.266;2023-03-12T14:47:46;6.30;99.90
17687;DHT22;8962;52.538;13.266;2023-03-12T14:50:16;6.30;99.90
17687;DHT22;8962;52.538;13.266;2023-03-12T14:52:44;6.40;99.90
17687;DHT22;8962;52.538;13.266;2023-03-12T14:55:13;6.40;99.90
17687;DHT22;8962;52.538;13.266;2023-03-12T14:57:42;6.40;99.90
17687;DHT22;8962;52.538;13.266;2023-03-12T15:00:22;6.30;99.90
17687;DHT22;8962;52.538;13.266;2023-03-12T15:02:51;6.30;99.90
17687;DHT22;8962;52.538;13.266;2023-03-12T15:05:20;6.30;99.90
17687;DHT22;8962;52.538;13.266;2023-03-12T15:07:48;6.40;99.90
17687;DHT22;8962;52.538;13.266;2023-03-12T15:10:20;6.30;99.90
17687;DHT22;8962;52.538;13.266;2023-03-12T15:12:50;6.10;99.90
17687;DHT22;8962;52.538;13.266;2023-03-12T15:15:37;6.20;99.90
17687;DHT22;8962;52.538;13.266;2023-03-12T15:18:10;6.20;99.90
17687;DHT22;8962;52.538;13.266;2023-03-12T15:20:38;6.20;99.90
17687;DHT22;8962;52.538;13.266;2023-03-12T15:23:08;6.00;99.90
17687;DHT22;8962;52.538;13.266;2023-03-12T15:25:36;5.90;99.90
17687;DHT22;8962;52.538;13.266;2023-03-12T15:28:06;5.90;99.90
17687;DHT22;8962;52.538;13.266;2023-03-12T15:30:38;5.80;99.90
17687;DHT22;8962;52.538;13.266;2023-03-12T15:33:10;5.70;99.90
17687;DHT22;8962;52.538;13.266;2023-03-12T15:35:41;5.60;99.90
17687;DHT22;8962;52.538;13.266;2023-03-12T15:38:14;5.60;99.90
17687;DHT22;8962;52.538;13.266;2023-03-12T15:40:49;5.60;99.90
17687;DHT22;8962;52.538;13.266;2023-03-12T15:43:20;5.50;99.90
17687;DHT22;8962;52.538;13.266;2023-03-12T15:45:58;5.50;99.90
17687;DHT22;8962;52.538;13.266;2023-03-12T15:48:27;5.60;99.90
17687;DHT22;8962;52.538;13.266;2023-03-12T15:50:55;5.70;99.90
17687;DHT22;8962;52.538;13.266;2023-03-12T15:53:31;5.70;99.90
17687;DHT22;8962;52.538;13.266;2023-03-12T15:56:05;5.60;99.90
17687;DHT22;8962;52.538;13.266;2023-03-12T15:58:36;5.60;99.90
17687;DHT22;8962;52.538;13.266;2023-03-12T16:01:10;5.50;99.90
17687;DHT22;8962;52.538;13.266;2023-03-12T16:03:39;5.50;99.90
17687;DHT22;8962;52.538;13.266;2023-03-12T16:06:11;5.60;99.90
17687;DHT22;8962;52.538;13.266;2023-03-12T16:08:42;5.40;99.90
17687;DHT22;8962;52.538;13.266;2023-03-12T16:11:15;5.40;99.90
17687;DHT22;8962;52.538;13.266;2023-03-12T16:13:45;5.30;99.90